sensor_id;sensor_type;location;lat;lon;timestamp;pressure;altitude;pressure_sealevel;temperature;humidity
29909;BME280;36247;51.952;6.146;2023-03-11T00:01:49;100498.66;;;0.44;100.00
29909;BME280;36247;51.952;6.146;2023-03-11T00:04:14;100497.84;;;0.45;100.00
29909;BME280;36247;51.952;6.146;2023-03-11T00:06:40;100506.47;;;0.44;100.00
29909;BME280;36247;51.952;6.146;2023-03-11T00:09:05;100497.41;;;0.36;100.00
29909;BME280;36247;51.952;6.146;2023-03-11T00:11:31;100504.53;;;0.40;100.00
29909;BME280;36247;51.952;6.146;2023-03-11T00:13:56;100513.03;;;0.36;100.00
29909;BME280;36247;51.952;6.146;2023-03-11T00:16:21;100504.66;;;0.25;100.00
29909;BME280;36247;51.952;6.146;2023-03-11T00:18:49;100504.03;;;0.13;100.00
29909;BME280;36247;51.952;6.146;2023-03-11T00:21:16;100508.06;;;0.06;100.00
29909;BME280;36247;51.952;6.146;2023-03-11T00:23:42;100520.09;;;0.04;100.00
29909;BME280;36247;51.952;6.146;2023-03-11T00:26:07;100519.78;;;-0.02;100.00
29909;BME280;36247;51.952;6.146;2023-03-11T00:28:33;100524.84;;;-0.05;100.00
29909;BME280;36247;51.952;6.146;2023-03-11T00:30:58;100522.00;;;-0.10;100.00
29909;BME280;36247;51.952;6.146;2023-03-11T00:33:25;100529.09;;;-0.07;100.00
29909;BME280;36247;51.952;6.146;2023-03-11T00:35:51;100538.34;;;-0.12;100.00
29909;BME280;36247;51.952;6.146;2023-03-11T00:38:18;100538.13;;;-0.17;100.00
29909;BME280;36247;51.952;6.146;2023-03-11T00:40:45;100539.00;;;-0.16;100.00
29909;BME280;36247;51.952;6.146;2023-03-11T00:43:11;100551.78;;;-0.21;100.00
29909;BME280;36247;51.952;6.146;2023-03-11T00:45:36;100559.75;;;-0.18;100.00
29909;BME280;36247;51.952;6.146;2023-03-11T00:48:03;100559.69;;;-0.20;100.00
29909;BME280;36247;51.952;6.146;2023-03-11T00:50:32;100559.44;;;-0.24;100.00
29909;BME280;36247;51.952;6.146;2023-03-11T00:52:58;100558.56;;;-0.25;100.00
29909;BME280;36247;51.952;6.146;2023-03-11T00:55:27;100556.69;;;-0.27;100.00
29909;BME280;36247;51.952;6.146;2023-03-11T00:57:55;100560.13;;;-0.28;100.00
29909;BME280;36247;51.952;6.146;2023-03-11T01:00:27;100558.22;;;-0.31;100.00
29909;BME280;36247;51.952;6.146;2023-03-11T01:02:55;100564.09;;;-0.35;100.00
29909;BME280;36247;51.952;6.146;2023-03-11T01:05:25;100564.09;;;-0.35;100.00
29909;BME280;36247;51.952;6.146;2023-03-11T01:07:51;100571.81;;;-0.37;100.00
29909;BME280;36247;51.952;6.146;2023-03-11T01:10:17;100569.22;;;-0.37;100.00
29909;BME280;36247;51.952;6.146;2023-03-11T01:12:43;100568.97;;;-0.41;100.00
29909;BME280;36247;51.952;6.146;2023-03-11T01:15:15;100571.50;;;-0.43;100.00
29909;BME280;36247;51.952;6.146;2023-03-11T01:17:42;100567.16;;;-0.42;100.00
29909;BME280;36247;51.952;6.146;2023-03-11T01:20:09;100566.38;;;-0.41;100.00
29909;BME280;36247;51.952;6.146;2023-03-11T01:22:35;100571.72;;;-0.38;100.00
29909;BME280;36247;51.952;6.146;2023-03-11T01:25:01;100570.00;;;-0.38;100.00
29909;BME280;36247;51.952;6.146;2023-03-11T01:27:26;100576.28;;;-0.34;100.00
29909;BME280;36247;51.952;6.146;2023-03-11T01:29:52;100578.91;;;-0.34;100.00
29909;BME280;36247;51.952;6.146;2023-03-11T01:32:18;100581.41;;;-0.36;100.00
29909;BME280;36247;51.952;6.146;2023-03-11T01:34:44;100590.91;;;-0.36;100.00
29909;BME280;36247;51.952;6.146;2023-03-11T01:37:10;100588.16;;;-0.39;100.00
29909;BME280;36247;51.952;6.146;2023-03-11T01:39:35;100596.72;;;-0.42;100.00
29909;BME280;36247;51.952;6.146;2023-03-11T01:42:01;100593.03;;;-0.45;100.00
29909;BME280;36247;51.952;6.146;2023-03-11T01:44:27;100598.06;;;-0.48;100.00
29909;BME280;36247;51.952;6.146;2023-03-11T01:49:22;100595.22;;;-0.53;100.00
29909;BME280;36247;51.952;6.146;2023-03-11T01:51:51;100601.22;;;-0.54;100.00
29909;BME280;36247;51.952;6.146;2023-03-11T01:54:22;100605.38;;;-0.58;100.00
29909;BME280;36247;51.952;6.146;2023-03-11T01:56:50;100598.47;;;-0.57;100.00
29909;BME280;36247;51.952;6.146;2023-03-11T01:59:20;100601.63;;;-0.63;100.00
29909;BME280;36247;51.952;6.146;2023-03-11T02:01:55;100599.69;;;-0.67;100.00
29909;BME280;36247;51.952;6.146;2023-03-11T02:04:23;100605.69;;;-0.68;100.00
29909;BME280;36247;51.952;6.146;2023-03-11T02:06:52;100603.97;;;-0.67;100.00
29909;BME280;36247;51.952;6.146;2023-03-11T02:09:17;100611.53;;;-0.72;100.00
29909;BME280;36247;51.952;6.146;2023-03-11T02:11:43;100613.31;;;-0.71;100.00
29909;BME280;36247;51.952;6.146;2023-03-11T02:14:09;100615.13;;;-0.70;100.00
29909;BME280;36247;51.952;6.146;2023-03-11T02:16:34;100613.25;;;-0.73;100.00
29909;BME280;36247;51.952;6.146;2023-03-11T02:19:11;100611.00;;;-0.81;100.00
29909;BME280;36247;51.952;6.146;2023-03-11T02:21:41;100620.72;;;-0.79;100.00
29909;BME280;36247;51.952;6.146;2023-03-11T02:29:12;100629.75;;;-0.87;100.00
29909;BME280;36247;51.952;6.146;2023-03-11T02:31:40;100634.72;;;-0.92;100.00
29909;BME280;36247;51.952;6.146;2023-03-11T02:34:12;100626.91;;;-0.92;100.00
29909;BME280;36247;51.952;6.146;2023-03-11T02:36:41;100627.25;;;-0.85;100.00
29909;BME280;36247;51.952;6.146;2023-03-11T02:39:10;100632.47;;;-0.85;100.00
29909;BME280;36247;51.952;6.146;2023-03-11T02:41:39;100634.63;;;-0.93;100.00
29909;BME280;36247;51.952;6.146;2023-03-11T02:44:09;100634.72;;;-0.92;100.00
29909;BME280;36247;51.952;6.146;2023-03-11T02:46:37;100641.09;;;-0.86;100.00
29909;BME280;36247;51.952;6.146;2023-03-11T02:49:05;100640.09;;;-0.89;100.00
29909;BME280;36247;51.952;6.146;2023-03-11T02:51:32;100642.56;;;-0.75;100.00
29909;BME280;36247;51.952;6.146;2023-03-11T02:54:02;100644.03;;;-0.80;100.00
29909;BME280;36247;51.952;6.146;2023-03-11T02:56:29;100652.97;;;-0.75;100.00
29909;BME280;36247;51.952;6.146;2023-03-11T02:58:55;100652.63;;;-0.81;100.00
29909;BME280;36247;51.952;6.146;2023-03-11T03:01:20;100645.97;;;-0.76;100.00
29909;BME280;36247;51.952;6.146;2023-03-11T03:03:47;100642.41;;;-0.78;100.00
29909;BME280;36247;51.952;6.146;2023-03-11T03:06:13;100647.25;;;-0.84;100.00
29909;BME280;36247;51.952;6.146;2023-03-11T03:08:39;100649.56;;;-0.74;100.00
29909;BME280;36247;51.952;6.146;2023-03-11T03:11:05;100647.16;;;-0.71;100.00
29909;BME280;36247;51.952;6.146;2023-03-11T03:13:31;100651.41;;;-0.57;100.00
29909;BME280;36247;51.952;6.146;2023-03-11T03:15:57;100649.75;;;-0.71;100.00
29909;BME280;36247;51.952;6.146;2023-03-11T03:18:23;100645.22;;;-0.59;100.00
29909;BME280;36247;51.952;6.146;2023-03-11T03:20:50;100653.03;;;-0.59;100.00
29909;BME280;36247;51.952;6.146;2023-03-11T03:23:16;100643.25;;;-0.63;100.00
29909;BME280;36247;51.952;6.146;2023-03-11T03:25:43;100647.94;;;-0.72;100.00
29909;BME280;36247;51.952;6.146;2023-03-11T03:28:10;100660.31;;;-0.68;100.00
29909;BME280;36247;51.952;6.146;2023-03-11T03:30:38;100662.91;;;-0.68;100.00
29909;BME280;36247;51.952;6.146;2023-03-11T03:33:05;100661.19;;;-0.67;100.00
29909;BME280;36247;51.952;6.146;2023-03-11T03:35:32;100661.47;;;-0.63;100.00
29909;BME280;36247;51.952;6.146;2023-03-11T03:38:07;100662.47;;;-0.61;100.00
29909;BME280;36247;51.952;6.146;2023-03-11T03:40:33;100665.69;;;-0.65;100.00
29909;BME280;36247;51.952;6.146;2023-03-11T03:43:02;100662.28;;;-0.64;100.00
29909;BME280;36247;51.952;6.146;2023-03-11T03:45:29;100669.09;;;-0.66;100.00
29909;BME280;36247;51.952;6.146;2023-03-11T03:47:54;100683.81;;;-0.66;100.00
29909;BME280;36247;51.952;6.146;2023-03-11T03:50:22;100680.34;;;-0.67;100.00
29909;BME280;36247;51.952;6.146;2023-03-11T03:52:49;100687.47;;;-0.63;100.00
29909;BME280;36247;51.952;6.146;2023-03-11T03:55:15;100696.28;;;-0.61;100.00
29909;BME280;36247;51.952;6.146;2023-03-11T03:57:40;100697.88;;;-0.63;100.00
29909;BME280;36247;51.952;6.146;2023-03-11T04:00:09;100690.91;;;-0.64;100.00
29909;BME280;36247;51.952;6.146;2023-03-11T04:02:43;100691.78;;;-0.63;100.00
29909;BME280;36247;51.952;6.146;2023-03-11T04:05:17;100694.81;;;-0.56;100.00
29909;BME280;36247;51.952;6.146;2023-03-11T04:07:44;100707.19;;;-0.51;100.00
29909;BME280;36247;51.952;6.146;2023-03-11T04:10:11;100705.41;;;-0.52;100.00
29909;BME280;36247;51.952;6.146;2023-03-11T04:12:37;100710.94;;;-0.46;100.00
29909;BME280;36247;51.952;6.146;2023-03-11T04:15:03;100706.50;;;-0.49;100.00
29909;BME280;36247;51.952;6.146;2023-03-11T04:17:29;100704.78;;;-0.48;100.00
29909;BME280;36247;51.952;6.146;2023-03-11T04:19:55;100713.56;;;-0.46;100.00
29909;BME280;36247;51.952;6.146;2023-03-11T04:22:20;100706.56;;;-0.47;100.00
29909;BME280;36247;51.952;6.146;2023-03-11T04:24:46;100707.19;;;-0.51;100.00
29909;BME280;36247;51.952;6.146;2023-03-11T04:27:11;100719.25;;;-0.54;100.00
29909;BME280;36247;51.952;6.146;2023-03-11T04:29:38;100716.31;;;-0.60;100.00
29909;BME280;36247;51.952;6.146;2023-03-11T04:32:04;100711.63;;;-0.65;100.00
29909;BME280;36247;51.952;6.146;2023-03-11T04:34:31;100723.66;;;-0.67;100.00
29909;BME280;36247;51.952;6.146;2023-03-11T04:36:57;100723.38;;;-0.72;100.00
29909;BME280;36247;51.952;6.146;2023-03-11T04:39:27;100720.53;;;-0.77;100.00
29909;BME280;36247;51.952;6.146;2023-03-11T04:41:53;100726.44;;;-0.79;100.00
29909;BME280;36247;51.952;6.146;2023-03-11T04:44:22;100723.50;;;-0.85;100.00
29909;BME280;36247;51.952;6.146;2023-03-11T04:46:48;100727.88;;;-0.84;100.00
29909;BME280;36247;51.952;6.146;2023-03-11T04:49:14;100728.69;;;-0.85;100.00
29909;BME280;36247;51.952;6.146;2023-03-11T04:51:40;100740.00;;;-0.85;100.00
29909;BME280;36247;51.952;6.146;2023-03-11T04:54:06;100741.69;;;-0.85;100.00
29909;BME280;36247;51.952;6.146;2023-03-11T04:56:32;100740.72;;;-0.87;100.00
29909;BME280;36247;51.952;6.146;2023-03-11T04:58:58;100742.13;;;-0.93;100.00
29909;BME280;36247;51.952;6.146;2023-03-11T05:01:25;100740.53;;;-0.91;100.00
29909;BME280;36247;51.952;6.146;2023-03-11T05:03:50;100755.97;;;-0.94;100.00
29909;BME280;36247;51.952;6.146;2023-03-11T05:06:16;100758.56;;;-0.94;100.00
29909;BME280;36247;51.952;6.146;2023-03-11T05:08:42;100748.25;;;-0.92;100.00
29909;BME280;36247;51.952;6.146;2023-03-11T05:11:08;100758.56;;;-0.94;100.00
29909;BME280;36247;51.952;6.146;2023-03-11T05:13:33;100752.84;;;-0.88;100.00
29909;BME280;36247;51.952;6.146;2023-03-11T05:15:59;100765.53;;;-0.93;100.00
29909;BME280;36247;51.952;6.146;2023-03-11T05:18:25;100763.78;;;-0.94;100.00
29909;BME280;36247;51.952;6.146;2023-03-11T05:20:50;100766.56;;;-0.91;100.00
29909;BME280;36247;51.952;6.146;2023-03-11T05:23:20;100763.03;;;-0.91;100.00
29909;BME280;36247;51.952;6.146;2023-03-11T05:25:46;100767.34;;;-0.92;100.00
29909;BME280;36247;51.952;6.146;2023-03-11T05:28:11;100766.28;;;-0.95;100.00
29909;BME280;36247;51.952;6.146;2023-03-11T05:30:43;100770.56;;;-0.96;100.00
29909;BME280;36247;51.952;6.146;2023-03-11T05:33:08;100768.78;;;-0.97;100.00
29909;BME280;36247;51.952;6.146;2023-03-11T05:35:34;100769.41;;;-1.01;100.00
29909;BME280;36247;51.952;6.146;2023-03-11T05:38:00;100778.00;;;-1.02;100.00
29909;BME280;36247;51.952;6.146;2023-03-11T05:40:28;100784.47;;;-1.10;100.00
29909;BME280;36247;51.952;6.146;2023-03-11T05:42:53;100776.75;;;-1.09;100.00
29909;BME280;36247;51.952;6.146;2023-03-11T05:45:19;100762.75;;;-1.11;100.00
29909;BME280;36247;51.952;6.146;2023-03-11T05:47:46;100784.03;;;-1.18;100.00
29909;BME280;36247;51.952;6.146;2023-03-11T05:50:14;100786.06;;;-1.12;100.00
29909;BME280;36247;51.952;6.146;2023-03-11T05:52:41;100783.28;;;-1.15;100.00
29909;BME280;36247;51.952;6.146;2023-03-11T05:55:07;100787.41;;;-1.19;100.00
29909;BME280;36247;51.952;6.146;2023-03-11T05:57:36;100792.84;;;-1.29;100.00
29909;BME280;36247;51.952;6.146;2023-03-11T06:00:03;100800.47;;;-1.32;100.00
29909;BME280;36247;51.952;6.146;2023-03-11T06:02:39;100793.38;;;-1.35;100.00
29909;BME280;36247;51.952;6.146;2023-03-11T06:05:06;100799.59;;;-1.33;100.00
29909;BME280;36247;51.952;6.146;2023-03-11T06:07:34;100808.28;;;-1.32;100.00
29909;BME280;36247;51.952;6.146;2023-03-11T06:10:01;100804.88;;;-1.31;100.00
29909;BME280;36247;51.952;6.146;2023-03-11T06:12:27;100811.66;;;-1.33;100.00
29909;BME280;36247;51.952;6.146;2023-03-11T06:15:13;100808.19;;;-1.34;100.00
29909;BME280;36247;51.952;6.146;2023-03-11T06:17:39;100824.47;;;-1.36;100.00
29909;BME280;36247;51.952;6.146;2023-03-11T06:20:07;100821.00;;;-1.37;100.00
29909;BME280;36247;51.952;6.146;2023-03-11T06:22:34;100825.25;;;-1.37;100.00
29909;BME280;36247;51.952;6.146;2023-03-11T06:25:00;100818.47;;;-1.35;100.00
29909;BME280;36247;51.952;6.146;2023-03-11T06:27:26;100825.25;;;-1.37;100.00
29909;BME280;36247;51.952;6.146;2023-03-11T06:29:52;100829.16;;;-1.31;100.00
29909;BME280;36247;51.952;6.146;2023-03-11T06:32:19;100833.56;;;-1.30;100.00
29909;BME280;36247;51.952;6.146;2023-03-11T06:34:49;100836.25;;;-1.28;100.00
29909;BME280;36247;51.952;6.146;2023-03-11T06:37:15;100847.72;;;-1.25;100.00
29909;BME280;36247;51.952;6.146;2023-03-11T06:39:40;100855.53;;;-1.25;100.00
29909;BME280;36247;51.952;6.146;2023-03-11T06:42:10;100847.31;;;-1.17;100.00
29909;BME280;36247;51.952;6.146;2023-03-11T06:44:36;100850.00;;;-1.16;100.00
29909;BME280;36247;51.952;6.146;2023-03-11T06:47:02;100849.28;;;-1.13;100.00
29909;BME280;36247;51.952;6.146;2023-03-11T06:49:28;100846.97;;;-1.09;100.00
29909;BME280;36247;51.952;6.146;2023-03-11T06:51:53;100853.84;;;-1.09;100.00
29909;BME280;36247;51.952;6.146;2023-03-11T06:54:18;100861.03;;;-1.05;100.00
29909;BME280;36247;51.952;6.146;2023-03-11T06:56:44;100860.16;;;-1.05;100.00
29909;BME280;36247;51.952;6.146;2023-03-11T06:59:10;100867.53;;;-0.98;100.00
29909;BME280;36247;51.952;6.146;2023-03-11T07:01:36;100869.47;;;-0.94;100.00
29909;BME280;36247;51.952;6.146;2023-03-11T07:04:03;100876.50;;;-0.93;100.00
29909;BME280;36247;51.952;6.146;2023-03-11T07:06:30;100881.00;;;-0.91;100.00
29909;BME280;36247;51.952;6.146;2023-03-11T07:09:02;100882.16;;;-0.85;100.00
29909;BME280;36247;51.952;6.146;2023-03-11T07:11:28;100884.69;;;-0.72;100.00
29909;BME280;36247;51.952;6.146;2023-03-11T07:14:02;100883.28;;;-0.67;100.00
29909;BME280;36247;51.952;6.146;2023-03-11T07:16:31;100895.63;;;-0.63;100.00
29909;BME280;36247;51.952;6.146;2023-03-11T07:19:03;100894.41;;;-0.55;100.00
29909;BME280;36247;51.952;6.146;2023-03-11T07:21:30;100895.94;;;-0.43;100.00
29909;BME280;36247;51.952;6.146;2023-03-11T07:23:59;100895.38;;;-0.23;100.00
29909;BME280;36247;51.952;6.146;2023-03-11T07:26:26;100905.88;;;-0.21;100.00
29909;BME280;36247;51.952;6.146;2023-03-11T07:28:53;100909.13;;;-0.10;100.00
29909;BME280;36247;51.952;6.146;2023-03-11T07:31:25;100904.56;;;-0.14;100.00
29909;BME280;36247;51.952;6.146;2023-03-11T07:33:51;100918.44;;;0.01;100.00
29909;BME280;36247;51.952;6.146;2023-03-11T07:36:19;100916.38;;;0.10;100.00
29909;BME280;36247;51.952;6.146;2023-03-11T07:38:45;100919.22;;;0.15;100.00
29909;BME280;36247;51.952;6.146;2023-03-11T07:41:12;100918.41;;;0.31;100.00
29909;BME280;36247;51.952;6.146;2023-03-11T07:43:39;100926.72;;;0.40;100.00
29909;BME280;36247;51.952;6.146;2023-03-11T07:46:13;100921.91;;;0.63;100.00
29909;BME280;36247;51.952;6.146;2023-03-11T07:48:47;100929.41;;;0.73;100.00
29909;BME280;36247;51.952;6.146;2023-03-11T07:51:15;100924.56;;;0.96;100.00
29909;BME280;36247;51.952;6.146;2023-03-11T07:53:41;100926.03;;;1.23;100.00
29909;BME280;36247;51.952;6.146;2023-03-11T07:56:10;100925.63;;;1.32;100.00
29909;BME280;36247;51.952;6.146;2023-03-11T07:58:36;100933.53;;;1.34;100.00
29909;BME280;36247;51.952;6.146;2023-03-11T08:01:12;100933.81;;;1.56;100.00
29909;BME280;36247;51.952;6.146;2023-03-11T08:03:41;100939.00;;;1.73;100.00
29909;BME280;36247;51.952;6.146;2023-03-11T08:06:17;100944.81;;;1.84;100.00
29909;BME280;36247;51.952;6.146;2023-03-11T08:08:43;100943.94;;;1.67;100.00
29909;BME280;36247;51.952;6.146;2023-03-11T08:11:09;100941.75;;;1.92;100.00
29909;BME280;36247;51.952;6.146;2023-03-11T08:13:34;100934.03;;;2.12;100.00
29909;BME280;36247;51.952;6.146;2023-03-11T08:16:04;100937.38;;;2.09;100.00
29909;BME280;36247;51.952;6.146;2023-03-11T08:18:30;100947.84;;;2.27;100.00
29909;BME280;36247;51.952;6.146;2023-03-11T08:20:56;100949.16;;;2.37;100.00
29909;BME280;36247;51.952;6.146;2023-03-11T08:23:21;100948.56;;;2.43;100.00
29909;BME280;36247;51.952;6.146;2023-03-11T08:25:47;100952.47;;;2.15;100.00
29909;BME280;36247;51.952;6.146;2023-03-11T08:28:12;100947.25;;;2.33;100.00
29909;BME280;36247;51.952;6.146;2023-03-11T08:30:38;100959.88;;;2.42;100.00
29909;BME280;36247;51.952;6.146;2023-03-11T08:33:04;100941.16;;;2.52;100.00
29909;BME280;36247;51.952;6.146;2023-03-11T08:35:30;100954.78;;;2.45;100.00
29909;BME280;36247;51.952;6.146;2023-03-11T08:37:56;100944.19;;;2.60;100.00
29909;BME280;36247;51.952;6.146;2023-03-11T08:40:22;100941.31;;;2.73;100.00
29909;BME280;36247;51.952;6.146;2023-03-11T08:42:47;100953.97;;;2.83;100.00
29909;BME280;36247;51.952;6.146;2023-03-11T08:45:13;100942.91;;;2.89;100.00
29909;BME280;36247;51.952;6.146;2023-03-11T08:47:38;100951.81;;;2.93;100.00
29909;BME280;36247;51.952;6.146;2023-03-11T08:50:08;100941.03;;;3.24;100.00
29909;BME280;36247;51.952;6.146;2023-03-11T08:52:34;100940.88;;;3.21;100.00
29909;BME280;36247;51.952;6.146;2023-03-11T08:55:00;100943.91;;;3.50;100.00
29909;BME280;36247;51.952;6.146;2023-03-11T08:57:25;100953.75;;;3.96;100.00
29909;BME280;36247;51.952;6.146;2023-03-11T08:59:50;100938.69;;;4.34;100.00
29909;BME280;36247;51.952;6.146;2023-03-11T09:02:16;100946.22;;;4.48;100.00
29909;BME280;36247;51.952;6.146;2023-03-11T09:04:41;100951.19;;;4.84;100.00
29909;BME280;36247;51.952;6.146;2023-03-11T09:07:07;100952.47;;;4.50;100.00
29909;BME280;36247;51.952;6.146;2023-03-11T09:09:33;100952.19;;;4.65;100.00
29909;BME280;36247;51.952;6.146;2023-03-11T09:11:59;100955.50;;;4.61;100.00
29909;BME280;36247;51.952;6.146;2023-03-11T09:14:24;100951.53;;;4.93;100.00
29909;BME280;36247;51.952;6.146;2023-03-11T09:16:50;100960.09;;;4.89;100.00
29909;BME280;36247;51.952;6.146;2023-03-11T09:19:15;100967.22;;;4.48;100.00
29909;BME280;36247;51.952;6.146;2023-03-11T09:21:41;100954.84;;;4.89;100.00
29909;BME280;36247;51.952;6.146;2023-03-11T09:26:48;100974.88;;;4.64;100.00
29909;BME280;36247;51.952;6.146;2023-03-11T09:29:13;100974.75;;;4.61;100.00
29909;BME280;36247;51.952;6.146;2023-03-11T09:31:39;100983.78;;;4.68;100.00
29909;BME280;36247;51.952;6.146;2023-03-11T09:34:04;100984.44;;;5.07;100.00
29909;BME280;36247;51.952;6.146;2023-03-11T09:36:30;100984.72;;;4.70;100.00
29909;BME280;36247;51.952;6.146;2023-03-11T09:38:55;100978.97;;;4.79;100.00
29909;BME280;36247;51.952;6.146;2023-03-11T09:41:27;100996.38;;;4.76;100.00
29909;BME280;36247;51.952;6.146;2023-03-11T09:49:30;100996.59;;;5.28;100.00
29909;BME280;36247;51.952;6.146;2023-03-11T09:52:10;100995.34;;;4.95;100.00
29909;BME280;36247;51.952;6.146;2023-03-11T09:54:39;101000.22;;;5.54;100.00
29909;BME280;36247;51.952;6.146;2023-03-11T09:57:13;101003.56;;;5.74;100.00
29909;BME280;36247;51.952;6.146;2023-03-11T09:59:41;101004.34;;;5.96;100.00
29909;BME280;36247;51.952;6.146;2023-03-11T10:02:14;101010.84;;;6.06;100.00
29909;BME280;36247;51.952;6.146;2023-03-11T10:04:44;101010.88;;;6.59;98.19
29909;BME280;36247;51.952;6.146;2023-03-11T10:07:18;101005.03;;;6.67;98.49
29909;BME280;36247;51.952;6.146;2023-03-11T10:09:56;100995.41;;;7.26;94.38
29909;BME280;36247;51.952;6.146;2023-03-11T10:20:57;100993.22;;;8.40;76.63
29909;BME280;36247;51.952;6.146;2023-03-11T10:26:41;100994.66;;;8.98;88.03
29909;BME280;36247;51.952;6.146;2023-03-11T10:29:26;100990.38;;;9.89;68.08
29909;BME280;36247;51.952;6.146;2023-03-11T10:32:00;100991.22;;;9.88;65.98
29909;BME280;36247;51.952;6.146;2023-03-11T10:34:42;100993.44;;;9.65;65.01
29909;BME280;36247;51.952;6.146;2023-03-11T10:37:20;100989.94;;;9.25;66.32
29909;BME280;36247;51.952;6.146;2023-03-11T10:39:49;100997.50;;;8.35;66.56
29909;BME280;36247;51.952;6.146;2023-03-11T10:42:24;100992.44;;;8.79;71.60
29909;BME280;36247;51.952;6.146;2023-03-11T10:44:52;100999.16;;;9.03;70.82
29909;BME280;36247;51.952;6.146;2023-03-11T10:47:20;101001.16;;;8.75;66.57
29909;BME280;36247;51.952;6.146;2023-03-11T10:49:47;100996.44;;;9.39;59.04
29909;BME280;36247;51.952;6.146;2023-03-11T10:52:13;100998.69;;;9.63;62.64
29909;BME280;36247;51.952;6.146;2023-03-11T10:54:43;101004.00;;;10.09;59.50
29909;BME280;36247;51.952;6.146;2023-03-11T10:57:27;100989.41;;;10.88;61.84
29909;BME280;36247;51.952;6.146;2023-03-11T10:59:58;100993.28;;;11.10;60.75
29909;BME280;36247;51.952;6.146;2023-03-11T11:02:38;100990.00;;;11.31;60.46
29909;BME280;36247;51.952;6.146;2023-03-11T11:07:44;101000.28;;;9.55;52.70
29909;BME280;36247;51.952;6.146;2023-03-11T11:12:36;101009.09;;;9.54;52.94
29909;BME280;36247;51.952;6.146;2023-03-11T11:15:03;101009.41;;;8.52;52.60
29909;BME280;36247;51.952;6.146;2023-03-11T11:17:33;101007.06;;;9.03;52.94
29909;BME280;36247;51.952;6.146;2023-03-11T11:20:00;101013.09;;;9.35;55.67
29909;BME280;36247;51.952;6.146;2023-03-11T11:22:37;100993.91;;;10.92;57.42
29909;BME280;36247;51.952;6.146;2023-03-11T11:25:24;100995.13;;;11.16;52.91
29909;BME280;36247;51.952;6.146;2023-03-11T11:28:03;100996.56;;;10.92;50.66
29909;BME280;36247;51.952;6.146;2023-03-11T11:31:02;101002.50;;;11.38;51.72
29909;BME280;36247;51.952;6.146;2023-03-11T11:33:38;101005.06;;;9.75;49.76
29909;BME280;36247;51.952;6.146;2023-03-11T11:36:12;101005.91;;;11.29;52.48
29909;BME280;36247;51.952;6.146;2023-03-11T11:38:39;101008.88;;;9.89;51.71
29909;BME280;36247;51.952;6.146;2023-03-11T11:41:05;101014.91;;;10.80;54.40
29909;BME280;36247;51.952;6.146;2023-03-11T11:43:42;101016.06;;;10.40;48.88
29909;BME280;36247;51.952;6.146;2023-03-11T11:46:37;101016.31;;;10.56;50.32
29909;BME280;36247;51.952;6.146;2023-03-11T11:52:03;100995.31;;;13.12;52.02
29909;BME280;36247;51.952;6.146;2023-03-11T11:54:37;101005.50;;;11.66;48.85
29909;BME280;36247;51.952;6.146;2023-03-11T11:57:15;101015.88;;;10.85;48.58
29909;BME280;36247;51.952;6.146;2023-03-11T11:59:46;101012.00;;;10.64;47.58
29909;BME280;36247;51.952;6.146;2023-03-11T12:07:53;101000.00;;;12.27;45.18
29909;BME280;36247;51.952;6.146;2023-03-11T12:13:34;101002.25;;;12.88;42.81
29909;BME280;36247;51.952;6.146;2023-03-11T12:16:18;101020.88;;;10.16;46.09
29909;BME280;36247;51.952;6.146;2023-03-11T12:18:58;101013.59;;;11.08;46.10
29909;BME280;36247;51.952;6.146;2023-03-11T12:27:14;101015.22;;;11.01;45.31
29909;BME280;36247;51.952;6.146;2023-03-11T12:29:45;101013.41;;;10.97;48.04
29909;BME280;36247;51.952;6.146;2023-03-11T12:32:22;101015.31;;;11.07;49.45
29909;BME280;36247;51.952;6.146;2023-03-11T12:34:49;101011.00;;;10.56;48.22
29909;BME280;36247;51.952;6.146;2023-03-11T12:37:18;101022.56;;;9.66;48.71
29909;BME280;36247;51.952;6.146;2023-03-11T12:39:46;101015.09;;;9.91;51.86
29909;BME280;36247;51.952;6.146;2023-03-11T12:42:19;101004.38;;;9.83;52.30
29909;BME280;36247;51.952;6.146;2023-03-11T12:44:46;101002.72;;;9.46;50.75
29909;BME280;36247;51.952;6.146;2023-03-11T12:49:41;101009.09;;;8.06;51.24
29909;BME280;36247;51.952;6.146;2023-03-11T12:54:46;101008.25;;;8.42;50.54
29909;BME280;36247;51.952;6.146;2023-03-11T13:07:59;100990.06;;;8.90;59.92
29909;BME280;36247;51.952;6.146;2023-03-11T13:10:37;100992.00;;;9.38;51.77
29909;BME280;36247;51.952;6.146;2023-03-11T13:15:54;100999.16;;;9.03;49.08
29909;BME280;36247;51.952;6.146;2023-03-11T13:18:25;100992.53;;;8.83;48.56
29909;BME280;36247;51.952;6.146;2023-03-11T13:29:04;100997.16;;;8.54;47.70
29909;BME280;36247;51.952;6.146;2023-03-11T13:32:00;100991.91;;;8.94;47.33
29909;BME280;36247;51.952;6.146;2023-03-11T13:42:48;100991.69;;;10.13;51.07
29909;BME280;36247;51.952;6.146;2023-03-11T13:45:35;100991.09;;;10.29;45.74
29909;BME280;36247;51.952;6.146;2023-03-11T13:48:31;100989.94;;;10.64;45.52
29909;BME280;36247;51.952;6.146;2023-03-11T13:51:03;100986.03;;;10.98;46.38
29909;BME280;36247;51.952;6.146;2023-03-11T13:56:43;100993.66;;;10.75;41.98
29909;BME280;36247;51.952;6.146;2023-03-11T13:59:17;101007.28;;;10.45;40.85
29909;BME280;36247;51.952;6.146;2023-03-11T14:01:55;100994.03;;;11.70;39.54
29909;BME280;36247;51.952;6.146;2023-03-11T14:04:26;100993.00;;;12.39;37.87
29909;BME280;36247;51.952;6.146;2023-03-11T14:06:52;100991.50;;;12.75;37.30
29909;BME280;36247;51.952;6.146;2023-03-11T14:09:20;100982.69;;;12.79;39.69
29909;BME280;36247;51.952;6.146;2023-03-11T14:11:46;100997.75;;;11.86;41.24
29909;BME280;36247;51.952;6.146;2023-03-11T14:16:54;101011.19;;;11.28;38.72
29909;BME280;36247;51.952;6.146;2023-03-11T14:19:20;101013.44;;;11.63;41.75
29909;BME280;36247;51.952;6.146;2023-03-11T14:21:49;101006.59;;;11.85;42.36
29909;BME280;36247;51.952;6.146;2023-03-11T14:24:27;101004.63;;;11.69;41.43